Time;durP1;ratioP1;P1;durP2;ratioP2;P2;SDS_P1;SDS_P2;PMS_P1;PMS_P2;Temp;Humidity;BMP_temperature;BMP_pressure;BME280_temperature;BME280_humidity;BME280_pressure;Samples;Min_cycle;Max_cycle;Signal;HPM_P1;HPM_P2
2024/04/13 00:01:45;;;;;;;0.13;0.13;;;10.20;1.00;;;;;;5427119;26;20511;-80
2024/04/13 00:04:11;;;;;;;0.40;0.40;;;10.20;1.00;;;;;;5439474;26;20031;-78
2024/04/13 00:06:37;;;;;;;1.17;0.65;;;10.20;1.00;;;;;;5428205;26;20035;-78
2024/04/13 00:09:04;;;;;;;0.20;0.20;;;10.30;1.00;;;;;;5451128;26;20026;-78
2024/04/13 00:11:31;;;;;;;0.30;0.30;;;10.30;1.00;;;;;;5393114;26;20047;-78
2024/04/13 00:13:57;;;;;;;0.45;0.45;;;10.30;1.00;;;;;;5415956;26;20418;-78
2024/04/13 00:16:23;;;;;;;0.28;0.28;;;10.30;1.00;;;;;;5451476;26;20035;-79
2024/04/13 00:18:49;;;;;;;0.30;0.30;;;10.20;1.00;;;;;;5449743;26;20040;-77
2024/04/13 00:21:15;;;;;;;0.20;0.20;;;10.20;1.00;;;;;;5449920;26;20039;-77
2024/04/13 00:23:45;;;;;;;0.88;0.45;;;10.10;1.00;;;;;;5417510;26;20370;-78
2024/04/13 00:26:11;;;;;;;3.08;1.77;;;10.10;1.00;;;;;;5414110;26;20035;-77
2024/04/13 00:28:37;;;;;;;0.55;0.55;;;10.00;1.00;;;;;;5439153;26;20047;-77
2024/04/13 00:31:04;;;;;;;0.30;0.30;;;10.00;1.00;;;;;;5411784;26;20039;-77
2024/04/13 00:33:30;;;;;;;0.30;0.30;;;10.00;1.00;;;;;;5414352;26;20040;-84
2024/04/13 00:35:59;;;;;;;0.35;0.35;;;10.00;1.00;;;;;;5427394;26;20054;-78
2024/04/13 00:38:29;;;;;;;0.32;0.32;;;10.00;1.00;;;;;;5419797;26;20014;-77
2024/04/13 00:40:55;;;;;;;0.57;0.57;;;10.00;1.00;;;;;;5391685;26;20007;-78
2024/04/13 00:43:21;;;;;;;0.10;0.10;;;10.00;1.00;;;;;;5401487;26;20038;-78
2024/04/13 00:45:48;;;;;;;1.58;0.82;;;10.00;1.00;;;;;;5418740;26;20038;-77
2024/04/13 00:48:18;;;;;;;0.38;0.38;;;10.00;1.00;;;;;;5388881;26;20043;-78
2024/04/13 00:50:48;;;;;;;0.22;0.22;;;10.00;1.00;;;;;;5399281;26;20111;-77
2024/04/13 00:53:17;;;;;;;0.20;0.20;;;10.00;1.00;;;;;;5445575;26;20047;-79
2024/04/13 00:55:44;;;;;;;0.63;0.40;;;10.10;1.00;;;;;;5421969;26;20030;-78
2024/04/13 00:58:11;;;;;;;0.40;0.40;;;10.20;1.00;;;;;;5417869;26;20047;-78
2024/04/13 01:00:39;;;;;;;0.45;0.45;;;10.20;1.00;;;;;;5437333;26;20104;-77
2024/04/13 01:03:06;;;;;;;0.20;0.20;;;10.20;1.00;;;;;;5385591;26;20035;-77
2024/04/13 01:05:34;;;;;;;0.20;0.20;;;10.20;1.00;;;;;;5449898;26;20026;-78
2024/04/13 01:08:01;;;;;;;0.20;0.20;;;10.10;1.00;;;;;;5414231;26;20031;-77
2024/04/13 01:10:28;;;;;;;1.00;0.68;;;10.00;1.00;;;;;;5413088;26;20042;-79
2024/04/13 01:12:54;;;;;;;2.60;0.63;;;9.90;1.00;;;;;;5430396;26;20035;-84
2024/04/13 01:15:20;;;;;;;0.38;0.35;;;9.90;1.00;;;;;;5439493;26;20023;-78
2024/04/13 01:17:47;;;;;;;0.20;0.20;;;9.70;1.00;;;;;;5426705;26;20059;-77
2024/04/13 01:20:13;;;;;;;0.85;0.77;;;9.60;1.00;;;;;;5444689;26;20046;-78
2024/04/13 01:22:43;;;;;;;0.20;0.20;;;9.50;1.00;;;;;;5403785;26;20472;-78
2024/04/13 01:25:09;;;;;;;0.98;0.82;;;9.50;1.00;;;;;;5405231;26;20371;-78
2024/04/13 01:27:36;;;;;;;0.55;0.55;;;9.40;8.90;;;;;;5453282;26;20030;-78
2024/04/13 01:30:07;;;;;;;0.25;0.25;;;9.50;25.30;;;;;;5447519;26;20035;-78
2024/04/13 01:32:34;;;;;;;0.32;0.32;;;9.60;28.50;;;;;;5395416;26;20035;-79
2024/04/13 01:35:10;;;;;;;0.40;0.40;;;9.60;24.00;;;;;;5415125;26;20388;-78
2024/04/13 01:37:37;;;;;;;0.20;0.20;;;9.60;16.20;;;;;;5422435;26;20039;-78
2024/04/13 01:40:05;;;;;;;1.13;0.85;;;9.50;8.30;;;;;;5452182;26;20035;-78
2024/04/13 01:42:31;;;;;;;0.10;0.10;;;9.50;2.60;;;;;;5416887;26;20038;-77
2024/04/13 01:44:57;;;;;;;0.52;0.52;;;9.40;15.00;;;;;;5442812;26;20034;-84
2024/04/13 01:47:23;;;;;;;0.20;0.20;;;9.30;18.50;;;;;;5445582;26;20460;-78
2024/04/13 01:49:49;;;;;;;0.98;0.90;;;9.30;27.00;;;;;;5449731;26;20027;-77
2024/04/13 01:52:15;;;;;;;0.10;0.10;;;9.30;58.60;;;;;;5418525;26;20059;-78
2024/04/13 01:54:42;;;;;;;1.83;0.40;;;9.30;64.70;;;;;;5420599;26;20034;-78
2024/04/13 01:57:08;;;;;;;0.20;0.20;;;9.30;64.10;;;;;;5416056;26;20383;-78
2024/04/13 01:59:36;;;;;;;0.40;0.40;;;9.40;50.00;;;;;;5428437;26;20035;-78
2024/04/13 02:02:02;;;;;;;0.35;0.32;;;9.30;48.40;;;;;;5419844;26;20459;-79
2024/04/13 02:04:28;;;;;;;0.55;0.55;;;9.20;35.00;;;;;;5432196;26;20047;-78
2024/04/13 02:06:54;;;;;;;0.20;0.20;;;9.20;31.90;;;;;;5446001;26;20028;-78
2024/04/13 02:09:20;;;;;;;0.88;0.85;;;9.20;33.00;;;;;;5411802;26;20050;-78
2024/04/13 02:11:47;;;;;;;1.27;0.52;;;9.10;42.30;;;;;;5404321;26;20027;-78
2024/04/13 02:14:13;;;;;;;0.10;0.10;;;9.20;62.30;;;;;;5426736;26;20035;-77
2024/04/13 02:16:39;;;;;;;1.75;0.57;;;9.20;71.80;;;;;;5401047;26;20040;-77
2024/04/13 02:19:05;;;;;;;0.40;0.40;;;9.10;82.40;;;;;;5391051;26;20039;-78
2024/04/13 02:21:31;;;;;;;0.75;0.47;;;9.10;83.00;;;;;;5421466;26;20035;-78
2024/04/13 02:23:58;;;;;;;0.45;0.45;;;9.00;74.60;;;;;;5446226;26;20030;-79
2024/04/13 02:26:24;;;;;;;0.93;0.30;;;9.00;82.60;;;;;;5420534;26;20510;-78
2024/04/13 02:28:51;;;;;;;0.50;0.50;;;8.90;88.00;;;;;;5452482;26;20055;-78
2024/04/13 02:31:17;;;;;;;0.35;0.35;;;8.90;97.30;;;;;;5419397;26;20042;-78
2024/04/13 02:33:43;;;;;;;0.90;0.52;;;8.90;96.30;;;;;;5407193;26;20036;-77
2024/04/13 02:36:09;;;;;;;0.88;0.63;;;8.90;99.00;;;;;;5415140;26;20373;-76
2024/04/13 02:38:35;;;;;;;0.13;0.13;;;8.90;99.90;;;;;;5429132;26;20028;-77
2024/04/13 02:41:03;;;;;;;1.85;0.57;;;8.90;99.90;;;;;;5415031;26;20034;-78
2024/04/13 02:43:35;;;;;;;0.40;0.40;;;8.90;99.90;;;;;;5448545;26;20384;-78
2024/04/13 02:46:08;;;;;;;0.13;0.13;;;8.90;99.90;;;;;;5412531;26;20347;-79
2024/04/13 02:48:39;;;;;;;0.30;0.30;;;8.80;99.90;;;;;;5411609;26;20034;-78
2024/04/13 02:51:06;;;;;;;0.20;0.20;;;8.80;99.90;;;;;;5444997;26;20043;-78
2024/04/13 02:53:34;;;;;;;0.20;0.20;;;8.80;99.90;;;;;;5448283;26;20058;-78
2024/04/13 02:56:04;;;;;;;0.30;0.30;;;8.70;99.90;;;;;;5383543;26;20044;-81
2024/04/13 02:58:31;;;;;;;1.27;0.95;;;8.70;99.90;;;;;;5394293;26;20035;-78
2024/04/13 03:00:59;;;;;;;0.95;0.65;;;8.70;99.90;;;;;;5406419;26;20030;-83
2024/04/13 03:03:26;;;;;;;0.20;0.20;;;8.70;99.90;;;;;;5439752;26;20534;-79
2024/04/13 03:06:00;;;;;;;10.07;0.75;;;8.60;99.90;;;;;;5449563;26;20032;-78
2024/04/13 03:08:26;;;;;;;1.50;0.50;;;8.70;99.90;;;;;;5419929;26;20034;-80
2024/04/13 03:10:56;;;;;;;1.67;0.98;;;8.70;99.90;;;;;;5445100;26;20035;-77
2024/04/13 03:13:23;;;;;;;0.20;0.20;;;8.60;99.90;;;;;;5418897;26;20047;-78
2024/04/13 03:15:58;;;;;;;0.45;0.45;;;8.60;99.90;;;;;;5413820;26;20031;-78
2024/04/13 03:18:27;;;;;;;1.98;1.77;;;8.60;99.90;;;;;;5433352;26;20035;-77
2024/04/13 03:20:55;;;;;;;0.77;0.73;;;8.60;99.90;;;;;;5416991;26;20030;-78
2024/04/13 03:23:28;;;;;;;1.33;0.90;;;8.60;99.90;;;;;;5419565;26;20358;-79
2024/04/13 03:25:54;;;;;;;0.20;0.20;;;8.50;99.90;;;;;;5416408;26;20030;-77
2024/04/13 03:28:30;;;;;;;0.60;0.60;;;8.60;99.90;;;;;;5420546;26;20250;-78
2024/04/13 03:30:57;;;;;;;0.60;0.60;;;8.50;99.90;;;;;;5441504;26;20027;-78
2024/04/13 03:33:24;;;;;;;1.35;1.00;;;8.50;99.90;;;;;;5451693;26;20031;-79
2024/04/13 03:35:50;;;;;;;0.38;0.38;;;8.50;99.90;;;;;;5399512;26;20480;-78
2024/04/13 03:38:17;;;;;;;0.10;0.10;;;8.50;99.90;;;;;;5419033;26;20035;-77
2024/04/13 03:40:47;;;;;;;0.20;0.20;;;8.50;99.90;;;;;;5419954;26;20031;-78
2024/04/13 03:43:14;;;;;;;0.55;0.43;;;8.60;99.90;;;;;;5400014;26;20007;-78
2024/04/13 03:45:41;;;;;;;0.40;0.30;;;8.50;99.90;;;;;;5383433;26;20040;-77
2024/04/13 03:48:07;;;;;;;2.38;1.33;;;8.40;99.90;;;;;;5445799;26;20376;-79
2024/04/13 03:50:40;;;;;;;0.75;0.75;;;8.40;99.90;;;;;;5419415;26;20042;-77
2024/04/13 03:53:06;;;;;;;0.40;0.30;;;8.40;99.90;;;;;;5413103;26;20039;-78
2024/04/13 03:55:32;;;;;;;0.68;0.40;;;8.30;99.90;;;;;;5413151;26;20034;-77
2024/04/13 03:57:58;;;;;;;0.70;0.70;;;8.30;99.90;;;;;;5389996;26;20169;-77
2024/04/13 04:00:25;;;;;;;0.70;0.70;;;8.30;99.90;;;;;;5451687;26;20023;-78
2024/04/13 04:02:51;;;;;;;0.20;0.20;;;8.30;99.90;;;;;;5429348;26;20036;-78
2024/04/13 04:05:17;;;;;;;0.25;0.25;;;8.30;99.90;;;;;;5430435;26;20381;-78
2024/04/13 04:07:43;;;;;;;0.20;0.20;;;8.40;99.90;;;;;;5414375;26;20034;-77
2024/04/13 04:10:11;;;;;;;0.68;0.68;;;8.40;99.90;;;;;;5367198;26;20035;-77
2024/04/13 04:12:41;;;;;;;0.45;0.45;;;8.40;99.90;;;;;;5403488;26;20036;-78
2024/04/13 04:15:07;;;;;;;0.40;0.40;;;8.40;99.90;;;;;;5436998;26;20027;-77
2024/04/13 04:17:34;;;;;;;0.75;0.75;;;8.40;99.90;;;;;;5408697;26;20032;-79
2024/04/13 04:20:00;;;;;;;0.28;0.28;;;8.40;99.90;;;;;;5433599;26;20055;-83
2024/04/13 04:22:26;;;;;;;0.38;0.38;;;8.40;99.90;;;;;;5448455;26;20106;-79
2024/04/13 04:24:53;;;;;;;0.85;0.77;;;8.40;99.90;;;;;;5453509;26;20031;-79
2024/04/13 04:27:20;;;;;;;0.73;0.55;;;8.40;99.90;;;;;;5447951;26;20377;-78
2024/04/13 04:29:46;;;;;;;0.60;0.60;;;8.40;99.90;;;;;;5437969;26;20027;-78
2024/04/13 04:32:12;;;;;;;0.47;0.40;;;8.40;99.90;;;;;;5421992;26;20031;-78
2024/04/13 04:34:39;;;;;;;0.30;0.30;;;8.40;99.90;;;;;;5441370;26;20125;-78
2024/04/13 04:37:05;;;;;;;0.40;0.40;;;8.40;99.90;;;;;;5451711;26;20035;-79
2024/04/13 04:39:31;;;;;;;6.68;1.75;;;8.30;99.90;;;;;;5414786;26;20044;-78
2024/04/13 04:41:57;;;;;;;0.43;0.43;;;8.30;99.90;;;;;;5449799;26;20043;-78
2024/04/13 04:44:23;;;;;;;0.30;0.30;;;8.20;99.90;;;;;;5447696;26;20039;-78
2024/04/13 04:46:50;;;;;;;0.30;0.30;;;8.20;99.90;;;;;;5416872;26;20373;-77
2024/04/13 04:49:16;;;;;;;0.25;0.25;;;8.20;99.90;;;;;;5419648;26;20031;-78
2024/04/13 04:51:42;;;;;;;0.55;0.55;;;8.20;99.90;;;;;;5449515;26;20070;-78
2024/04/13 04:54:08;;;;;;;0.45;0.45;;;8.30;99.90;;;;;;5395175;26;20035;-79
2024/04/13 04:56:34;;;;;;;0.47;0.47;;;8.30;99.90;;;;;;5416849;26;20023;-79
2024/04/13 04:59:01;;;;;;;0.20;0.20;;;8.40;99.90;;;;;;5444822;26;20058;-86
2024/04/13 05:01:27;;;;;;;0.40;0.40;;;8.50;99.90;;;;;;5420196;26;20031;-79
2024/04/13 05:03:53;;;;;;;0.55;0.55;;;8.60;99.90;;;;;;5408478;26;20032;-79
2024/04/13 05:06:19;;;;;;;0.40;0.40;;;8.60;99.90;;;;;;5398381;26;20036;-79
2024/04/13 05:08:47;;;;;;;0.43;0.38;;;8.60;99.90;;;;;;5397415;26;20038;-80
2024/04/13 05:11:14;;;;;;;0.30;0.30;;;8.70;99.90;;;;;;5412695;26;20040;-79
2024/04/13 05:13:40;;;;;;;3.92;1.33;;;8.70;95.50;;;;;;5407519;26;20046;-79
2024/04/13 05:16:10;;;;;;;0.75;0.75;;;8.70;73.60;;;;;;5401244;26;20345;-84
2024/04/13 05:18:37;;;;;;;3.95;0.75;;;8.80;75.20;;;;;;5393309;26;20056;-79
2024/04/13 05:21:04;;;;;;;0.57;0.57;;;8.90;54.40;;;;;;5387129;26;20040;-84
2024/04/13 05:23:30;;;;;;;1.08;0.98;;;9.20;86.40;;;;;;5395169;26;20032;-80
2024/04/13 05:25:56;;;;;;;0.82;0.82;;;9.80;99.60;;;;;;5397712;26;20031;-80
2024/04/13 05:28:23;;;;;;;1.45;1.00;;;10.70;1.00;;;;;;5410982;26;20058;-81
2024/04/13 05:31:00;;;;;;;3.00;1.20;;;11.20;99.90;;;;;;5398296;26;20032;-82
2024/04/13 05:33:27;;;;;;;0.32;0.32;;;11.80;99.90;;;;;;5415152;26;20551;-81
2024/04/13 05:35:57;;;;;;;0.30;0.30;;;12.20;27.40;;;;;;5379444;26;20048;-81
2024/04/13 05:38:23;;;;;;;2.55;0.85;;;12.60;1.00;;;;;;5379108;26;20383;-81
2024/04/13 05:40:50;;;;;;;1.17;0.68;;;12.90;1.00;;;;;;5359955;26;20048;-82
2024/04/13 05:43:16;;;;;;;0.40;0.30;;;13.20;1.00;;;;;;5414967;26;20031;-82
2024/04/13 05:45:43;;;;;;;2.10;1.05;;;13.30;99.90;;;;;;5394363;26;20045;-82
2024/04/13 05:48:10;;;;;;;1.10;0.57;;;13.50;99.90;;;;;;5395773;26;20064;-83
2024/04/13 05:50:36;;;;;;;2.42;0.52;;;13.80;99.90;;;;;;5395244;26;20035;-82
2024/04/13 05:53:02;;;;;;;0.70;0.50;;;13.90;99.90;;;;;;5407717;26;20036;-82
2024/04/13 05:55:28;;;;;;;0.57;0.57;;;14.30;99.90;;;;;;5394980;26;20032;-82
2024/04/13 05:57:55;;;;;;;0.47;0.47;;;14.50;99.90;;;;;;5402960;26;20028;-82
2024/04/13 06:00:21;;;;;;;1.15;0.90;;;14.80;99.90;;;;;;5402090;26;20418;-82
2024/04/13 06:02:48;;;;;;;0.50;0.50;;;15.20;99.90;;;;;;5409844;26;20151;-82
2024/04/13 06:05:15;;;;;;;0.95;0.85;;;15.90;99.90;;;;;;5410604;26;20035;-84
2024/04/13 06:07:43;;;;;;;0.43;0.43;;;16.40;64.20;;;;;;5405765;26;20027;-86
2024/04/13 06:10:09;;;;;;;1.98;0.50;;;16.80;1.00;;;;;;5415073;26;20117;-87
2024/04/13 06:12:35;;;;;;;1.17;1.10;;;17.20;1.00;;;;;;5415442;26;20038;-84
2024/04/13 06:15:02;;;;;;;0.90;0.85;;;17.30;1.00;;;;;;5441474;26;20046;-84
2024/04/13 06:17:28;;;;;;;0.75;0.75;;;17.50;1.00;;;;;;5389816;26;20116;-82
2024/04/13 06:19:55;;;;;;;1.80;1.23;;;17.40;1.00;;;;;;5419986;26;20408;-83
2024/04/13 06:22:23;;;;;;;0.40;0.40;;;17.40;1.00;;;;;;5450607;26;20401;-83
2024/04/13 06:24:53;;;;;;;0.65;0.60;;;17.60;1.00;;;;;;5389710;26;20030;-84
2024/04/13 06:27:19;;;;;;;2.25;0.73;;;18.00;1.00;;;;;;5415205;26;20042;-83
2024/04/13 06:29:51;;;;;;;0.70;0.60;;;18.60;99.90;;;;;;5451535;26;20035;-83
2024/04/13 06:32:18;;;;;;;1.40;0.60;;;18.20;99.90;;;;;;5417898;26;20039;-84
2024/04/13 06:34:44;;;;;;;0.50;0.50;;;18.20;1.00;;;;;;5444138;26;20395;-84
2024/04/13 06:37:14;;;;;;;0.30;0.30;;;17.70;99.90;;;;;;5409157;26;20031;-84
2024/04/13 06:39:40;;;;;;;1.10;0.80;;;17.00;1.00;;;;;;5450045;26;20106;-84
2024/04/13 06:42:06;;;;;;;1.85;0.75;;;16.40;1.00;;;;;;5455728;26;20030;-83
2024/04/13 06:44:32;;;;;;;0.25;0.25;;;16.40;13.10;;;;;;5422055;26;20035;-81
2024/04/13 06:46:59;;;;;;;0.60;0.50;;;16.60;18.30;;;;;;5417300;26;20059;-82
2024/04/13 06:49:26;;;;;;;0.30;0.30;;;17.20;1.00;;;;;;5407850;26;20049;-82
2024/04/13 06:51:52;;;;;;;0.32;0.32;;;17.40;1.00;;;;;;5419002;26;20062;-85
2024/04/13 06:54:18;;;;;;;1.88;0.80;;;17.50;1.00;;;;;;5416896;26;20032;-82
2024/04/13 06:56:44;;;;;;;0.60;0.60;;;17.60;1.00;;;;;;5413051;26;20069;-81
2024/04/13 06:59:10;;;;;;;1.67;1.27;;;17.70;1.00;;;;;;5435363;26;20386;-85
2024/04/13 07:01:36;;;;;;;0.73;0.55;;;17.80;1.00;;;;;;5441738;26;20030;-81
2024/04/13 07:04:03;;;;;;;0.13;0.13;;;17.80;1.00;;;;;;5418351;26;20030;-81
2024/04/13 07:06:31;;;;;;;5.85;0.60;;;17.80;1.00;;;;;;5413357;26;20286;-82
2024/04/13 07:08:57;;;;;;;0.30;0.30;;;17.60;1.00;;;;;;5404590;26;20035;-83
2024/04/13 07:11:23;;;;;;;0.57;0.45;;;17.50;1.00;;;;;;5436487;26;20448;-82
2024/04/13 07:13:49;;;;;;;0.45;0.45;;;17.60;1.00;;;;;;5402816;26;20031;-83
2024/04/13 07:16:16;;;;;;;0.57;0.50;;;17.80;1.00;;;;;;5412991;26;19995;-84
2024/04/13 07:18:42;;;;;;;0.52;0.40;;;17.90;99.90;;;;;;5439287;26;20036;-85
2024/04/13 07:21:09;;;;;;;0.77;0.77;;;17.80;1.00;;;;;;5437862;26;20040;-86
2024/04/13 07:23:35;;;;;;;4.35;1.55;;;18.00;99.90;;;;;;5405851;26;20038;-81
2024/04/13 07:26:02;;;;;;;0.75;0.63;;;18.10;99.90;;;;;;5407652;26;20027;-83
2024/04/13 07:28:30;;;;;;;0.63;0.57;;;17.80;99.90;;;;;;5412430;26;20027;-83
2024/04/13 07:30:57;;;;;;;0.65;0.60;;;17.70;99.90;;;;;;5415556;26;20142;-83
2024/04/13 07:33:23;;;;;;;1.23;0.20;;;17.70;1.00;;;;;;5442899;26;20054;-84
2024/04/13 07:35:50;;;;;;;1.30;1.20;;;17.80;1.00;;;;;;5394634;26;20377;-87
2024/04/13 07:38:16;;;;;;;0.50;0.45;;;18.10;1.00;;;;;;5409839;26;20040;-82
2024/04/13 07:40:42;;;;;;;0.80;0.80;;;18.10;99.90;;;;;;5406703;26;20039;-85
2024/04/13 07:43:08;;;;;;;0.82;0.52;;;18.00;99.90;;;;;;5381667;26;20027;-85
2024/04/13 07:45:35;;;;;;;1.90;0.70;;;18.00;99.90;;;;;;5398034;26;20031;-85
2024/04/13 07:48:01;;;;;;;0.82;0.82;;;18.30;99.90;;;;;;5446044;26;20453;-85
2024/04/13 07:50:27;;;;;;;0.30;0.30;;;18.40;99.90;;;;;;5407088;26;20479;-84
2024/04/13 07:52:54;;;;;;;2.20;0.77;;;18.70;99.90;;;;;;5415931;26;20035;-85
2024/04/13 07:55:20;;;;;;;1.38;1.27;;;18.80;99.90;;;;;;5437552;26;20146;-85
2024/04/13 07:57:46;;;;;;;2.40;0.88;;;19.10;99.90;;;;;;5443756;26;20471;-85
2024/04/13 08:00:13;;;;;;;0.50;0.47;;;19.10;99.90;;;;;;5411408;26;20390;-86
2024/04/13 08:02:39;;;;;;;0.20;0.20;;;19.20;99.90;;;;;;5403487;26;20040;-85
2024/04/13 08:05:07;;;;;;;0.47;0.47;;;19.10;99.90;;;;;;5404768;26;20036;-86
2024/04/13 08:07:34;;;;;;;1.00;1.00;;;19.00;99.90;;;;;;5401626;26;20592;-85
2024/04/13 08:10:00;;;;;;;2.63;0.45;;;19.40;99.90;;;;;;5384499;26;20035;-87
2024/04/13 08:12:26;;;;;;;1.23;0.82;;;19.40;99.90;;;;;;5446570;26;20035;-87
2024/04/13 08:14:52;;;;;;;0.40;0.40;;;19.60;99.90;;;;;;5441166;26;20329;-87
2024/04/13 08:17:21;;;;;;;6.40;1.20;;;19.90;99.90;;;;;;5404074;26;20036;-89
2024/04/13 08:19:47;;;;;;;0.70;0.70;;;19.80;99.90;;;;;;5398244;26;20035;-85
2024/04/13 08:22:13;;;;;;;1.17;0.52;;;19.80;99.90;;;;;;5413986;26;20099;-90
2024/04/13 08:24:40;;;;;;;0.40;0.40;;;20.00;99.90;;;;;;5451191;26;20031;-85
2024/04/13 08:27:06;;;;;;;0.85;0.77;;;20.20;99.90;;;;;;5420480;26;20030;-87
2024/04/13 08:29:33;;;;;;;0.32;0.32;;;20.20;99.90;;;;;;5389922;26;20332;-85
2024/04/13 08:31:59;;;;;;;0.45;0.45;;;20.40;99.90;;;;;;5446595;26;20036;-83
2024/04/13 08:34:26;;;;;;;1.38;0.50;;;20.60;99.90;;;;;;5429186;26;20032;-80
2024/04/13 08:36:53;;;;;;;1.85;1.33;;;20.80;99.90;;;;;;5391547;26;20036;-80
2024/04/13 08:39:19;;;;;;;0.47;0.30;;;20.90;99.90;;;;;;5386545;26;20039;-84
2024/04/13 08:42:10;;;;;;;14.23;1.77;;;21.20;99.90;;;;;;5408459;26;20060;-84
2024/04/13 08:44:38;;;;;;;0.63;0.63;;;21.10;99.90;;;;;;5442716;26;20039;-83
2024/04/13 08:47:06;;;;;;;0.47;0.43;;;21.30;99.90;;;;;;5388231;26;20468;-83
2024/04/13 08:49:39;;;;;;;0.25;0.25;;;21.40;99.90;;;;;;5406135;26;20039;-82
2024/04/13 08:52:07;;;;;;;0.82;0.82;;;21.70;99.90;;;;;;5453763;26;20031;-86
2024/04/13 08:54:33;;;;;;;0.30;0.30;;;21.90;99.90;;;;;;5421301;26;20039;-81
2024/04/13 08:57:01;;;;;;;0.63;0.55;;;21.70;99.90;;;;;;5409278;26;20035;-83
2024/04/13 08:59:28;;;;;;;1.77;0.90;;;21.60;99.90;;;;;;5450596;26;20034;-83
2024/04/13 09:01:56;;;;;;;0.50;0.50;;;21.70;99.90;;;;;;5443633;26;20032;-81
2024/04/13 09:04:22;;;;;;;0.85;0.85;;;22.00;99.90;;;;;;5416738;26;20055;-82
2024/04/13 09:06:49;;;;;;;0.60;0.60;;;22.00;99.90;;;;;;5400405;26;20365;-80
2024/04/13 09:09:15;;;;;;;0.30;0.30;;;22.50;99.90;;;;;;5412606;26;20034;-85
2024/04/13 09:11:42;;;;;;;0.90;0.43;;;22.00;99.90;;;;;;5432998;26;20062;-82
2024/04/13 09:14:11;;;;;;;2.05;0.50;;;21.70;99.90;;;;;;5429714;26;20456;-82
2024/04/13 09:16:39;;;;;;;0.73;0.63;;;20.70;99.90;;;;;;5400397;26;20051;-82
2024/04/13 09:19:05;;;;;;;0.75;0.73;;;20.60;99.90;;;;;;5443822;26;20640;-86
2024/04/13 09:21:34;;;;;;;0.57;0.57;;;21.00;99.90;;;;;;5389275;26;20031;-81
2024/04/13 09:24:00;;;;;;;0.65;0.65;;;21.40;99.90;;;;;;5401793;26;20055;-95
2024/04/13 09:26:26;;;;;;;1.13;0.82;;;21.80;99.90;;;;;;5435984;26;20031;-83
2024/04/13 09:28:52;;;;;;;0.57;0.52;;;21.80;99.90;;;;;;5407238;26;20044;-82
2024/04/13 09:31:19;;;;;;;0.70;0.70;;;21.40;99.90;;;;;;5401988;26;20035;-81
2024/04/13 09:33:48;;;;;;;0.73;0.40;;;21.60;99.90;;;;;;5419096;26;20030;-82
2024/04/13 09:36:21;;;;;;;0.40;0.35;;;22.00;99.90;;;;;;5451215;26;20031;-86
2024/04/13 09:38:48;;;;;;;3.17;0.57;;;22.00;99.90;;;;;;5444838;26;20027;-83
2024/04/13 09:41:14;;;;;;;0.77;0.77;;;22.30;99.90;;;;;;5413644;26;20039;-84
2024/04/13 09:43:40;;;;;;;0.47;0.47;;;22.70;99.90;;;;;;5415560;26;20039;-83
2024/04/13 09:46:06;;;;;;;0.85;0.82;;;23.00;99.90;;;;;;5415256;26;20031;-83
2024/04/13 09:48:33;;;;;;;2.00;0.95;;;23.10;99.90;;;;;;5432935;26;20352;-84
2024/04/13 09:51:00;;;;;;;0.40;0.40;;;22.90;99.90;;;;;;5419407;26;20031;-83
2024/04/13 09:53:26;;;;;;;0.20;0.20;;;22.70;99.90;;;;;;5377456;26;20040;-85
2024/04/13 09:55:52;;;;;;;0.30;0.30;;;22.00;99.90;;;;;;5406346;26;20040;-84
2024/04/13 09:58:19;;;;;;;0.30;0.20;;;21.50;99.90;;;;;;5408091;26;20111;-86
2024/04/13 10:00:49;;;;;;;1.35;0.95;;;22.00;99.90;;;;;;5418460;26;20038;-86
2024/04/13 10:03:17;;;;;;;0.28;0.28;;;21.70;99.90;;;;;;5432859;26;20030;-83
2024/04/13 10:05:44;;;;;;;0.22;0.22;;;22.00;99.90;;;;;;5418534;26;20034;-85
2024/04/13 10:08:11;;;;;;;0.85;0.65;;;21.90;99.90;;;;;;5366477;26;20032;-87
2024/04/13 10:10:48;;;;;;;5.25;0.70;;;22.10;99.90;;;;;;5405435;26;20030;-86
2024/04/13 10:13:21;;;;;;;0.35;0.35;;;22.40;99.90;;;;;;5408001;26;20039;-83
2024/04/13 10:15:47;;;;;;;0.30;0.30;;;22.70;99.90;;;;;;5400512;26;20114;-87
2024/04/13 10:18:14;;;;;;;0.20;0.20;;;22.80;99.90;;;;;;5445961;26;20035;-85
2024/04/13 10:20:40;;;;;;;0.40;0.40;;;22.70;99.90;;;;;;5415726;26;20030;-83
2024/04/13 10:23:12;;;;;;;0.43;0.43;;;22.70;99.90;;;;;;5412851;26;20038;-83
2024/04/13 10:25:38;;;;;;;0.88;0.47;;;22.10;99.90;;;;;;5409186;26;20456;-86
2024/04/13 10:28:08;;;;;;;0.20;0.20;;;22.40;99.90;;;;;;5432079;26;20031;-87
2024/04/13 10:31:02;;;;;;;0.22;0.20;;;22.30;99.90;;;;;;5403706;26;20472;-85
2024/04/13 10:33:30;;;;;;;0.30;0.30;;;22.30;99.90;;;;;;5402911;26;20044;-87
2024/04/13 10:35:58;;;;;;;0.20;0.20;;;22.40;99.90;;;;;;5441569;26;20035;-86
2024/04/13 10:38:25;;;;;;;0.43;0.43;;;22.60;99.90;;;;;;5443914;26;20043;-85
2024/04/13 10:40:51;;;;;;;0.52;0.52;;;22.60;99.90;;;;;;5439141;26;20047;-85
2024/04/13 10:43:19;;;;;;;0.65;0.65;;;22.30;99.90;;;;;;5396875;26;20036;-86
2024/04/13 10:46:05;;;;;;;0.38;0.35;;;22.40;99.90;;;;;;5437483;26;20040;-86
2024/04/13 10:48:32;;;;;;;0.63;0.40;;;22.80;99.90;;;;;;5415580;26;20031;-86
2024/04/13 10:50:59;;;;;;;0.30;0.30;;;23.00;99.90;;;;;;5408445;26;20475;-85
2024/04/13 10:53:27;;;;;;;0.38;0.38;;;22.90;99.90;;;;;;5435577;26;20038;-88
2024/04/13 10:55:56;;;;;;;1.02;0.90;;;22.70;99.90;;;;;;5460067;26;20007;-87
2024/04/13 10:58:30;;;;;;;0.20;0.20;;;22.50;99.90;;;;;;5416921;26;20004;-90
2024/04/13 11:00:57;;;;;;;0.20;0.20;;;22.70;99.90;;;;;;5441190;26;20034;-85
2024/04/13 11:03:27;;;;;;;0.20;0.20;;;23.10;99.90;;;;;;5420773;26;20031;-88
2024/04/13 11:05:54;;;;;;;;;;;23.20;99.90;;;;;;5424569;26;20130;-77
2024/04/13 11:08:23;;;;;;;0.38;0.20;;;23.20;99.90;;;;;;5438421;26;20286;-80
2024/04/13 11:10:54;;;;;;;0.35;0.35;;;23.10;99.90;;;;;;5430245;26;20472;-79
2024/04/13 11:13:21;;;;;;;0.40;0.40;;;22.60;99.90;;;;;;5446764;26;20032;-87
2024/04/13 11:15:47;;;;;;;0.73;0.73;;;22.70;99.90;;;;;;5447203;26;20031;-78
2024/04/13 11:18:13;;;;;;;1.17;0.60;;;22.90;99.90;;;;;;5411034;26;20030;-78
2024/04/13 11:20:41;;;;;;;1.65;1.25;;;22.90;99.90;;;;;;5437140;26;20042;-77
2024/04/13 11:23:08;;;;;;;0.30;0.30;;;23.00;99.90;;;;;;5433550;26;20030;-78
2024/04/13 11:25:34;;;;;;;2.38;0.93;;;23.30;99.90;;;;;;5402178;26;20035;-76
2024/04/13 11:28:03;;;;;;;0.20;0.20;;;22.90;99.90;;;;;;5422072;26;20034;-78
2024/04/13 11:30:31;;;;;;;1.30;0.93;;;22.80;99.90;;;;;;5428231;26;20027;-82
2024/04/13 11:32:59;;;;;;;0.43;0.43;;;23.10;99.90;;;;;;5434007;26;20031;-78
2024/04/13 11:35:26;;;;;;;0.20;0.20;;;23.30;99.90;;;;;;5435511;26;20492;-82
2024/04/13 11:37:59;;;;;;;0.32;0.28;;;23.40;99.90;;;;;;5437759;26;20031;-81
2024/04/13 11:40:39;;;;;;;0.40;0.30;;;23.40;99.90;;;;;;5430155;26;20027;-80
2024/04/13 11:43:06;;;;;;;;;;;23.60;99.90;;;;;;5425110;26;20036;-78
2024/04/13 11:45:32;;;;;;;0.30;0.30;;;23.40;99.90;;;;;;5435230;26;19953;-80
2024/04/13 11:47:59;;;;;;;0.30;0.25;;;23.60;98.80;;;;;;5435942;26;20043;-79
2024/04/13 11:50:25;;;;;;;0.65;0.65;;;23.90;95.40;;;;;;5435557;26;20040;-80
2024/04/13 11:52:51;;;;;;;0.20;0.20;;;23.90;96.10;;;;;;5431214;26;20040;-79
2024/04/13 11:55:25;;;;;;;4.38;0.95;;;23.70;95.90;;;;;;5429248;26;20039;-79
2024/04/13 11:57:51;;;;;;;0.32;0.32;;;23.70;99.20;;;;;;5433426;26;20475;-78
2024/04/13 12:00:18;;;;;;;0.63;0.63;;;24.10;95.90;;;;;;5437586;26;20515;-77
2024/04/13 12:02:45;;;;;;;1.70;1.00;;;24.10;94.80;;;;;;5411254;26;20387;-78
2024/04/13 12:05:12;;;;;;;0.20;0.20;;;23.80;97.60;;;;;;5425529;26;20035;-77
2024/04/13 12:07:38;;;;;;;0.40;0.40;;;23.60;97.50;;;;;;5417678;26;20036;-77
2024/04/13 12:10:05;;;;;;;0.30;0.30;;;23.70;95.90;;;;;;5429752;26;20049;-78
2024/04/13 12:12:31;;;;;;;0.20;0.20;;;24.00;97.00;;;;;;5442439;26;20039;-76
2024/04/13 12:14:57;;;;;;;0.40;0.40;;;24.20;95.70;;;;;;5429114;26;20456;-77
2024/04/13 12:17:23;;;;;;;0.20;0.20;;;24.00;92.00;;;;;;5413318;26;20483;-77
2024/04/13 12:19:49;;;;;;;2.47;0.40;;;23.90;93.40;;;;;;5437167;26;20356;-78
2024/04/13 12:22:16;;;;;;;0.20;0.20;;;23.80;90.40;;;;;;5436002;26;20028;-77
2024/04/13 12:24:42;;;;;;;0.20;0.20;;;24.00;91.40;;;;;;5435774;26;20035;-82
2024/04/13 12:27:08;;;;;;;0.43;0.35;;;23.90;88.90;;;;;;5400649;26;20027;-75
2024/04/13 12:29:34;;;;;;;1.95;0.70;;;24.00;92.20;;;;;;5441184;26;20447;-85
2024/04/13 12:32:01;;;;;;;0.20;0.20;;;24.10;90.60;;;;;;5415089;26;20032;-83
2024/04/13 12:34:27;;;;;;;0.30;0.30;;;24.20;85.50;;;;;;5415146;26;20035;-87
2024/04/13 12:36:53;;;;;;;0.20;0.20;;;23.80;81.90;;;;;;5411376;26;20031;-89
2024/04/13 12:39:19;;;;;;;0.20;0.20;;;24.00;88.30;;;;;;5383196;26;20044;-89
2024/04/13 12:41:46;;;;;;;0.20;0.20;;;24.00;90.20;;;;;;5416652;26;20062;-88
2024/04/13 12:44:12;;;;;;;0.15;0.15;;;24.00;90.10;;;;;;5419601;26;20034;-87
2024/04/13 12:46:38;;;;;;;0.35;0.35;;;24.00;82.30;;;;;;5382378;26;20428;-85
2024/04/13 12:49:05;;;;;;;0.20;0.20;;;24.00;85.00;;;;;;5420963;26;20019;-85
2024/04/13 12:51:31;;;;;;;0.20;0.20;;;24.00;79.00;;;;;;5418776;26;20023;-85
2024/04/13 12:54:00;;;;;;;0.30;0.30;;;23.80;80.10;;;;;;5390176;26;20019;-87